sensor_id;sensor_type;location;lat;lon;timestamp;P1;durP1;ratioP1;P2;durP2;ratioP2
11245;SDS011;59870;50.106;8.580;2022-07-29T00:00:25;4.10;;;1.73;;
11245;SDS011;59870;50.106;8.580;2022-07-29T00:02:52;2.27;;;2.00;;
11245;SDS011;59870;50.106;8.580;2022-07-29T00:05:20;2.20;;;2.00;;
11245;SDS011;59870;50.106;8.580;2022-07-29T00:07:47;3.93;;;1.87;;
11245;SDS011;59870;50.106;8.580;2022-07-29T00:10:15;1.80;;;1.70;;
11245;SDS011;59870;50.106;8.580;2022-07-29T00:12:42;5.40;;;2.23;;
11245;SDS011;59870;50.106;8.580;2022-07-29T00:15:10;4.80;;;1.50;;
11245;SDS011;59870;50.106;8.580;2022-07-29T00:17:38;4.77;;;1.60;;
11245;SDS011;59870;50.106;8.580;2022-07-29T00:20:05;1.77;;;1.43;;
11245;SDS011;59870;50.106;8.580;2022-07-29T00:22:36;2.50;;;1.70;;
11245;SDS011;59870;50.106;8.580;2022-07-29T00:25:05;4.47;;;1.27;;
11245;SDS011;59870;50.106;8.580;2022-07-29T00:27:34;3.60;;;2.00;;
11245;SDS011;59870;50.106;8.580;2022-07-29T00:30:02;4.57;;;1.60;;
11245;SDS011;59870;50.106;8.580;2022-07-29T00:32:31;2.50;;;1.60;;
11245;SDS011;59870;50.106;8.580;2022-07-29T00:34:58;3.40;;;1.67;;
11245;SDS011;59870;50.106;8.580;2022-07-29T00:37:44;3.60;;;2.07;;
11245;SDS011;59870;50.106;8.580;2022-07-29T00:40:11;3.90;;;2.10;;
11245;SDS011;59870;50.106;8.580;2022-07-29T00:42:49;2.17;;;1.97;;
11245;SDS011;59870;50.106;8.580;2022-07-29T00:45:18;3.60;;;1.57;;
11245;SDS011;59870;50.106;8.580;2022-07-29T00:47:46;2.97;;;1.80;;
11245;SDS011;59870;50.106;8.580;2022-07-29T00:50:14;5.17;;;2.10;;
11245;SDS011;59870;50.106;8.580;2022-07-29T00:52:42;2.20;;;1.80;;
11245;SDS011;59870;50.106;8.580;2022-07-29T00:55:13;4.73;;;1.83;;
11245;SDS011;59870;50.106;8.580;2022-07-29T00:57:43;3.23;;;1.97;;
11245;SDS011;59870;50.106;8.580;2022-07-29T01:00:15;3.23;;;2.00;;
11245;SDS011;59870;50.106;8.580;2022-07-29T01:02:46;5.53;;;2.37;;
11245;SDS011;59870;50.106;8.580;2022-07-29T01:05:18;3.57;;;1.90;;
11245;SDS011;59870;50.106;8.580;2022-07-29T01:07:51;7.93;;;2.30;;
11245;SDS011;59870;50.106;8.580;2022-07-29T01:10:20;4.67;;;2.43;;
11245;SDS011;59870;50.106;8.580;2022-07-29T01:12:50;6.17;;;2.10;;
11245;SDS011;59870;50.106;8.580;2022-07-29T01:15:19;5.30;;;2.13;;
11245;SDS011;59870;50.106;8.580;2022-07-29T01:18:00;2.30;;;1.60;;
11245;SDS011;59870;50.106;8.580;2022-07-29T01:29:11;2.20;;;1.97;;
11245;SDS011;59870;50.106;8.580;2022-07-29T01:32:03;6.07;;;2.10;;
11245;SDS011;59870;50.106;8.580;2022-07-29T01:37:34;3.23;;;2.23;;
11245;SDS011;59870;50.106;8.580;2022-07-29T01:40:19;3.93;;;2.50;;
11245;SDS011;59870;50.106;8.580;2022-07-29T01:42:54;4.33;;;2.20;;
11245;SDS011;59870;50.106;8.580;2022-07-29T01:45:33;2.70;;;2.50;;
11245;SDS011;59870;50.106;8.580;2022-07-29T01:48:20;2.97;;;2.17;;
11245;SDS011;59870;50.106;8.580;2022-07-29T01:51:05;2.33;;;2.03;;
11245;SDS011;59870;50.106;8.580;2022-07-29T01:56:19;2.57;;;2.20;;
11245;SDS011;59870;50.106;8.580;2022-07-29T01:58:48;6.27;;;2.67;;
11245;SDS011;59870;50.106;8.580;2022-07-29T02:01:18;3.90;;;2.17;;
11245;SDS011;59870;50.106;8.580;2022-07-29T02:03:48;2.57;;;2.07;;
11245;SDS011;59870;50.106;8.580;2022-07-29T02:06:19;2.83;;;1.80;;
11245;SDS011;59870;50.106;8.580;2022-07-29T02:08:49;3.23;;;2.23;;
11245;SDS011;59870;50.106;8.580;2022-07-29T02:11:19;2.50;;;2.03;;
11245;SDS011;59870;50.106;8.580;2022-07-29T02:13:46;2.63;;;2.20;;
11245;SDS011;59870;50.106;8.580;2022-07-29T02:16:15;2.33;;;2.13;;
11245;SDS011;59870;50.106;8.580;2022-07-29T02:18:45;2.83;;;2.43;;
11245;SDS011;59870;50.106;8.580;2022-07-29T02:21:17;5.43;;;2.50;;
11245;SDS011;59870;50.106;8.580;2022-07-29T02:23:51;3.33;;;2.10;;
11245;SDS011;59870;50.106;8.580;2022-07-29T02:26:20;3.83;;;2.10;;
11245;SDS011;59870;50.106;8.580;2022-07-29T02:28:50;2.30;;;2.10;;
11245;SDS011;59870;50.106;8.580;2022-07-29T02:31:21;3.27;;;2.73;;
11245;SDS011;59870;50.106;8.580;2022-07-29T02:33:52;4.40;;;2.37;;
11245;SDS011;59870;50.106;8.580;2022-07-29T02:36:21;5.23;;;2.40;;
11245;SDS011;59870;50.106;8.580;2022-07-29T02:38:50;9.03;;;2.70;;
11245;SDS011;59870;50.106;8.580;2022-07-29T02:41:20;3.07;;;2.20;;
11245;SDS011;59870;50.106;8.580;2022-07-29T02:43:51;2.53;;;2.33;;
11245;SDS011;59870;50.106;8.580;2022-07-29T02:46:27;3.83;;;2.20;;
11245;SDS011;59870;50.106;8.580;2022-07-29T02:52:00;2.40;;;2.20;;
11245;SDS011;59870;50.106;8.580;2022-07-29T02:54:31;2.67;;;2.10;;
11245;SDS011;59870;50.106;8.580;2022-07-29T02:57:14;2.83;;;2.50;;
11245;SDS011;59870;50.106;8.580;2022-07-29T02:59:48;3.07;;;2.30;;
11245;SDS011;59870;50.106;8.580;2022-07-29T03:02:18;6.50;;;2.57;;
11245;SDS011;59870;50.106;8.580;2022-07-29T03:04:47;2.23;;;2.10;;
11245;SDS011;59870;50.106;8.580;2022-07-29T03:07:16;2.40;;;2.20;;
11245;SDS011;59870;50.106;8.580;2022-07-29T03:09:47;4.67;;;2.50;;
11245;SDS011;59870;50.106;8.580;2022-07-29T03:12:15;2.20;;;2.00;;
11245;SDS011;59870;50.106;8.580;2022-07-29T03:14:43;4.33;;;2.43;;
11245;SDS011;59870;50.106;8.580;2022-07-29T03:17:11;2.87;;;2.00;;
11245;SDS011;59870;50.106;8.580;2022-07-29T03:19:39;3.50;;;2.10;;
11245;SDS011;59870;50.106;8.580;2022-07-29T03:22:08;3.20;;;2.10;;
11245;SDS011;59870;50.106;8.580;2022-07-29T03:24:37;8.33;;;2.40;;
11245;SDS011;59870;50.106;8.580;2022-07-29T03:27:04;3.00;;;2.40;;
11245;SDS011;59870;50.106;8.580;2022-07-29T03:29:32;3.20;;;2.73;;
11245;SDS011;59870;50.106;8.580;2022-07-29T03:32:04;2.80;;;2.53;;
11245;SDS011;59870;50.106;8.580;2022-07-29T03:34:35;3.47;;;2.50;;
11245;SDS011;59870;50.106;8.580;2022-07-29T03:37:04;3.13;;;2.53;;
11245;SDS011;59870;50.106;8.580;2022-07-29T03:39:35;3.50;;;2.20;;
11245;SDS011;59870;50.106;8.580;2022-07-29T03:42:06;4.07;;;2.47;;
11245;SDS011;59870;50.106;8.580;2022-07-29T03:44:37;2.27;;;2.07;;
11245;SDS011;59870;50.106;8.580;2022-07-29T03:47:05;3.30;;;2.43;;
11245;SDS011;59870;50.106;8.580;2022-07-29T03:49:35;3.60;;;2.80;;
11245;SDS011;59870;50.106;8.580;2022-07-29T03:52:04;4.80;;;2.40;;
11245;SDS011;59870;50.106;8.580;2022-07-29T03:54:32;3.37;;;2.40;;
11245;SDS011;59870;50.106;8.580;2022-07-29T03:57:00;9.40;;;2.70;;
11245;SDS011;59870;50.106;8.580;2022-07-29T03:59:30;2.67;;;2.47;;
11245;SDS011;59870;50.106;8.580;2022-07-29T04:02:00;3.30;;;2.37;;
11245;SDS011;59870;50.106;8.580;2022-07-29T04:04:31;2.60;;;2.30;;
11245;SDS011;59870;50.106;8.580;2022-07-29T04:07:00;4.00;;;2.33;;
11245;SDS011;59870;50.106;8.580;2022-07-29T04:09:28;3.20;;;2.60;;
11245;SDS011;59870;50.106;8.580;2022-07-29T04:11:56;9.40;;;2.40;;
11245;SDS011;59870;50.106;8.580;2022-07-29T04:14:30;3.97;;;2.50;;
11245;SDS011;59870;50.106;8.580;2022-07-29T04:16:59;2.30;;;2.10;;
11245;SDS011;59870;50.106;8.580;2022-07-29T04:19:27;4.27;;;2.50;;
11245;SDS011;59870;50.106;8.580;2022-07-29T04:21:56;5.70;;;2.53;;
11245;SDS011;59870;50.106;8.580;2022-07-29T04:24:25;3.60;;;2.50;;
11245;SDS011;59870;50.106;8.580;2022-07-29T04:26:53;5.27;;;2.63;;
11245;SDS011;59870;50.106;8.580;2022-07-29T04:29:21;4.90;;;2.83;;
11245;SDS011;59870;50.106;8.580;2022-07-29T04:31:48;2.40;;;2.20;;
11245;SDS011;59870;50.106;8.580;2022-07-29T04:34:15;2.23;;;1.90;;
11245;SDS011;59870;50.106;8.580;2022-07-29T04:36:43;3.13;;;2.20;;
11245;SDS011;59870;50.106;8.580;2022-07-29T04:39:11;2.43;;;2.23;;
11245;SDS011;59870;50.106;8.580;2022-07-29T04:41:38;2.80;;;2.10;;
11245;SDS011;59870;50.106;8.580;2022-07-29T04:44:08;2.70;;;2.27;;
11245;SDS011;59870;50.106;8.580;2022-07-29T04:46:36;7.87;;;2.50;;
11245;SDS011;59870;50.106;8.580;2022-07-29T04:49:03;2.43;;;2.23;;
11245;SDS011;59870;50.106;8.580;2022-07-29T04:51:31;3.40;;;2.23;;
11245;SDS011;59870;50.106;8.580;2022-07-29T04:53:58;4.47;;;2.47;;
11245;SDS011;59870;50.106;8.580;2022-07-29T04:56:26;3.80;;;2.10;;
11245;SDS011;59870;50.106;8.580;2022-07-29T04:58:53;3.47;;;2.40;;
11245;SDS011;59870;50.106;8.580;2022-07-29T05:01:21;2.90;;;2.60;;
11245;SDS011;59870;50.106;8.580;2022-07-29T05:03:48;2.57;;;2.37;;
11245;SDS011;59870;50.106;8.580;2022-07-29T05:06:16;3.50;;;2.00;;
11245;SDS011;59870;50.106;8.580;2022-07-29T05:08:43;2.97;;;2.17;;
11245;SDS011;59870;50.106;8.580;2022-07-29T05:11:11;4.30;;;2.73;;
11245;SDS011;59870;50.106;8.580;2022-07-29T05:13:42;2.90;;;2.50;;
11245;SDS011;59870;50.106;8.580;2022-07-29T05:16:13;3.00;;;2.40;;
11245;SDS011;59870;50.106;8.580;2022-07-29T05:18:41;3.13;;;2.60;;
11245;SDS011;59870;50.106;8.580;2022-07-29T05:21:08;5.73;;;2.23;;
11245;SDS011;59870;50.106;8.580;2022-07-29T05:23:36;3.67;;;2.10;;
11245;SDS011;59870;50.106;8.580;2022-07-29T05:26:03;3.17;;;2.40;;
11245;SDS011;59870;50.106;8.580;2022-07-29T05:28:34;7.50;;;2.17;;
11245;SDS011;59870;50.106;8.580;2022-07-29T05:31:02;3.73;;;2.60;;
11245;SDS011;59870;50.106;8.580;2022-07-29T05:33:29;4.80;;;2.20;;
11245;SDS011;59870;50.106;8.580;2022-07-29T05:36:05;3.10;;;2.40;;
11245;SDS011;59870;50.106;8.580;2022-07-29T05:38:34;4.27;;;2.30;;
11245;SDS011;59870;50.106;8.580;2022-07-29T05:41:03;3.47;;;2.50;;
11245;SDS011;59870;50.106;8.580;2022-07-29T05:43:31;4.03;;;2.50;;
11245;SDS011;59870;50.106;8.580;2022-07-29T05:45:59;5.67;;;2.60;;
11245;SDS011;59870;50.106;8.580;2022-07-29T05:48:27;3.90;;;2.77;;
11245;SDS011;59870;50.106;8.580;2022-07-29T05:50:55;4.47;;;2.67;;
11245;SDS011;59870;50.106;8.580;2022-07-29T05:53:22;7.47;;;2.70;;
11245;SDS011;59870;50.106;8.580;2022-07-29T05:55:50;7.03;;;2.53;;
11245;SDS011;59870;50.106;8.580;2022-07-29T05:58:18;4.37;;;2.40;;
11245;SDS011;59870;50.106;8.580;2022-07-29T06:00:46;4.93;;;2.80;;
11245;SDS011;59870;50.106;8.580;2022-07-29T06:03:13;3.50;;;2.40;;
11245;SDS011;59870;50.106;8.580;2022-07-29T06:05:41;5.50;;;2.47;;
11245;SDS011;59870;50.106;8.580;2022-07-29T06:08:08;10.13;;;2.93;;
11245;SDS011;59870;50.106;8.580;2022-07-29T06:10:35;4.80;;;2.40;;
11245;SDS011;59870;50.106;8.580;2022-07-29T06:13:03;8.73;;;3.33;;
11245;SDS011;59870;50.106;8.580;2022-07-29T06:15:59;4.80;;;3.00;;
11245;SDS011;59870;50.106;8.580;2022-07-29T06:19:02;5.67;;;3.13;;
11245;SDS011;59870;50.106;8.580;2022-07-29T06:21:30;5.17;;;3.13;;
11245;SDS011;59870;50.106;8.580;2022-07-29T06:23:58;9.63;;;2.60;;
11245;SDS011;59870;50.106;8.580;2022-07-29T06:26:26;3.07;;;2.63;;
11245;SDS011;59870;50.106;8.580;2022-07-29T06:28:57;6.90;;;2.67;;
11245;SDS011;59870;50.106;8.580;2022-07-29T06:31:25;4.27;;;2.37;;
11245;SDS011;59870;50.106;8.580;2022-07-29T06:33:53;3.63;;;2.80;;
11245;SDS011;59870;50.106;8.580;2022-07-29T06:36:21;3.85;;;2.40;;
11245;SDS011;59870;50.106;8.580;2022-07-29T06:38:51;3.97;;;2.78;;
11245;SDS011;59870;50.106;8.580;2022-07-29T06:41:19;3.47;;;2.60;;
11245;SDS011;59870;50.106;8.580;2022-07-29T06:43:46;4.53;;;2.67;;
11245;SDS011;59870;50.106;8.580;2022-07-29T06:46:21;2.83;;;2.50;;
11245;SDS011;59870;50.106;8.580;2022-07-29T06:48:49;3.85;;;2.60;;
11245;SDS011;59870;50.106;8.580;2022-07-29T06:51:18;4.15;;;2.65;;
11245;SDS011;59870;50.106;8.580;2022-07-29T06:53:52;6.13;;;3.10;;
11245;SDS011;59870;50.106;8.580;2022-07-29T06:56:32;4.07;;;2.50;;
11245;SDS011;59870;50.106;8.580;2022-07-29T06:59:06;2.85;;;2.53;;
11245;SDS011;59870;50.106;8.580;2022-07-29T07:01:35;3.13;;;2.60;;
11245;SDS011;59870;50.106;8.580;2022-07-29T07:04:04;3.75;;;2.83;;
11245;SDS011;59870;50.106;8.580;2022-07-29T07:06:32;6.05;;;2.75;;
11245;SDS011;59870;50.106;8.580;2022-07-29T07:08:59;4.00;;;2.45;;
11245;SDS011;59870;50.106;8.580;2022-07-29T07:11:26;4.03;;;2.47;;
11245;SDS011;59870;50.106;8.580;2022-07-29T07:13:54;2.50;;;2.30;;
11245;SDS011;59870;50.106;8.580;2022-07-29T07:16:28;3.42;;;2.67;;
11245;SDS011;59870;50.106;8.580;2022-07-29T07:18:56;4.60;;;2.60;;
11245;SDS011;59870;50.106;8.580;2022-07-29T07:21:23;5.15;;;2.88;;
11245;SDS011;59870;50.106;8.580;2022-07-29T07:23:50;8.77;;;2.58;;
11245;SDS011;59870;50.106;8.580;2022-07-29T07:26:38;8.15;;;2.83;;
11245;SDS011;59870;50.106;8.580;2022-07-29T07:29:06;8.63;;;3.00;;
11245;SDS011;59870;50.106;8.580;2022-07-29T07:31:35;4.35;;;2.58;;
11245;SDS011;59870;50.106;8.580;2022-07-29T07:34:03;4.50;;;2.38;;
11245;SDS011;59870;50.106;8.580;2022-07-29T07:36:31;3.95;;;2.67;;
11245;SDS011;59870;50.106;8.580;2022-07-29T07:38:58;5.30;;;2.75;;
11245;SDS011;59870;50.106;8.580;2022-07-29T07:41:26;8.02;;;2.90;;
11245;SDS011;59870;50.106;8.580;2022-07-29T07:43:58;3.13;;;2.08;;
11245;SDS011;59870;50.106;8.580;2022-07-29T07:46:26;2.85;;;2.50;;
11245;SDS011;59870;50.106;8.580;2022-07-29T07:48:56;3.70;;;1.98;;
11245;SDS011;59870;50.106;8.580;2022-07-29T07:51:23;6.43;;;2.72;;
11245;SDS011;59870;50.106;8.580;2022-07-29T07:53:51;2.55;;;2.10;;
11245;SDS011;59870;50.106;8.580;2022-07-29T07:56:19;5.85;;;2.45;;
11245;SDS011;59870;50.106;8.580;2022-07-29T07:58:48;4.15;;;2.40;;
11245;SDS011;59870;50.106;8.580;2022-07-29T08:01:15;4.45;;;2.50;;
11245;SDS011;59870;50.106;8.580;2022-07-29T08:03:45;2.88;;;2.35;;
11245;SDS011;59870;50.106;8.580;2022-07-29T08:06:13;5.28;;;2.78;;
11245;SDS011;59870;50.106;8.580;2022-07-29T08:08:40;4.68;;;2.40;;
11245;SDS011;59870;50.106;8.580;2022-07-29T08:11:08;4.50;;;2.47;;
11245;SDS011;59870;50.106;8.580;2022-07-29T08:13:36;4.47;;;2.55;;
11245;SDS011;59870;50.106;8.580;2022-07-29T08:16:04;5.32;;;2.60;;
11245;SDS011;59870;50.106;8.580;2022-07-29T08:18:39;3.03;;;2.58;;
11245;SDS011;59870;50.106;8.580;2022-07-29T08:21:08;3.65;;;2.50;;
11245;SDS011;59870;50.106;8.580;2022-07-29T08:23:36;6.72;;;2.53;;
11245;SDS011;59870;50.106;8.580;2022-07-29T08:26:19;5.40;;;2.35;;
11245;SDS011;59870;50.106;8.580;2022-07-29T08:28:49;3.67;;;2.58;;
11245;SDS011;59870;50.106;8.580;2022-07-29T08:31:17;3.25;;;2.50;;
11245;SDS011;59870;50.106;8.580;2022-07-29T08:33:45;7.00;;;2.92;;
11245;SDS011;59870;50.106;8.580;2022-07-29T08:36:12;4.78;;;2.58;;
11245;SDS011;59870;50.106;8.580;2022-07-29T08:38:40;4.68;;;2.58;;
11245;SDS011;59870;50.106;8.580;2022-07-29T08:41:07;2.35;;;2.05;;
11245;SDS011;59870;50.106;8.580;2022-07-29T08:43:35;5.25;;;2.63;;
11245;SDS011;59870;50.106;8.580;2022-07-29T08:46:04;4.30;;;2.65;;
11245;SDS011;59870;50.106;8.580;2022-07-29T08:48:50;3.45;;;2.42;;
11245;SDS011;59870;50.106;8.580;2022-07-29T08:51:18;3.25;;;2.30;;
11245;SDS011;59870;50.106;8.580;2022-07-29T08:54:15;3.88;;;2.40;;
11245;SDS011;59870;50.106;8.580;2022-07-29T08:56:44;2.50;;;2.30;;
11245;SDS011;59870;50.106;8.580;2022-07-29T08:59:16;2.58;;;2.38;;
11245;SDS011;59870;50.106;8.580;2022-07-29T09:01:48;7.30;;;2.47;;
11245;SDS011;59870;50.106;8.580;2022-07-29T09:04:20;3.25;;;2.25;;
11245;SDS011;59870;50.106;8.580;2022-07-29T09:06:51;8.18;;;2.92;;
11245;SDS011;59870;50.106;8.580;2022-07-29T09:09:21;3.15;;;2.40;;
11245;SDS011;59870;50.106;8.580;2022-07-29T09:11:59;2.83;;;2.33;;
11245;SDS011;59870;50.106;8.580;2022-07-29T09:14:27;3.13;;;2.70;;
11245;SDS011;59870;50.106;8.580;2022-07-29T09:16:55;5.72;;;2.75;;
11245;SDS011;59870;50.106;8.580;2022-07-29T09:19:24;5.78;;;2.50;;
11245;SDS011;59870;50.106;8.580;2022-07-29T09:21:58;4.07;;;2.35;;
11245;SDS011;59870;50.106;8.580;2022-07-29T09:27:26;3.25;;;2.58;;
11245;SDS011;59870;50.106;8.580;2022-07-29T09:29:59;2.70;;;2.33;;
11245;SDS011;59870;50.106;8.580;2022-07-29T09:32:29;4.63;;;2.60;;
11245;SDS011;59870;50.106;8.580;2022-07-29T09:37:48;3.90;;;2.05;;
11245;SDS011;59870;50.106;8.580;2022-07-29T09:40:23;3.42;;;2.47;;
11245;SDS011;59870;50.106;8.580;2022-07-29T09:42:54;3.03;;;2.38;;
11245;SDS011;59870;50.106;8.580;2022-07-29T09:45:27;5.07;;;2.53;;
11245;SDS011;59870;50.106;8.580;2022-07-29T09:47:56;4.60;;;2.38;;
11245;SDS011;59870;50.106;8.580;2022-07-29T09:50:39;5.65;;;2.33;;
11245;SDS011;59870;50.106;8.580;2022-07-29T09:53:07;3.28;;;2.30;;
11245;SDS011;59870;50.106;8.580;2022-07-29T09:55:51;4.97;;;2.92;;
11245;SDS011;59870;50.106;8.580;2022-07-29T09:58:20;2.83;;;2.35;;
11245;SDS011;59870;50.106;8.580;2022-07-29T10:00:49;3.55;;;2.42;;
11245;SDS011;59870;50.106;8.580;2022-07-29T10:03:19;4.78;;;2.60;;
11245;SDS011;59870;50.106;8.580;2022-07-29T10:06:04;3.70;;;2.50;;
11245;SDS011;59870;50.106;8.580;2022-07-29T10:08:37;3.42;;;2.05;;
11245;SDS011;59870;50.106;8.580;2022-07-29T10:11:11;2.35;;;2.15;;
11245;SDS011;59870;50.106;8.580;2022-07-29T10:13:43;2.72;;;2.53;;
11245;SDS011;59870;50.106;8.580;2022-07-29T10:16:12;2.78;;;2.42;;
11245;SDS011;59870;50.106;8.580;2022-07-29T10:18:42;5.15;;;2.53;;
11245;SDS011;59870;50.106;8.580;2022-07-29T10:21:10;3.15;;;2.30;;
11245;SDS011;59870;50.106;8.580;2022-07-29T10:23:59;6.75;;;2.67;;
11245;SDS011;59870;50.106;8.580;2022-07-29T10:26:27;5.70;;;2.92;;
11245;SDS011;59870;50.106;8.580;2022-07-29T10:28:56;3.72;;;2.95;;
11245;SDS011;59870;50.106;8.580;2022-07-29T10:31:26;3.17;;;2.45;;
11245;SDS011;59870;50.106;8.580;2022-07-29T10:34:08;5.50;;;2.67;;
11245;SDS011;59870;50.106;8.580;2022-07-29T10:37:06;3.60;;;3.25;;
11245;SDS011;59870;50.106;8.580;2022-07-29T10:43:18;2.78;;;2.58;;
11245;SDS011;59870;50.106;8.580;2022-07-29T10:45:56;7.07;;;2.65;;
11245;SDS011;59870;50.106;8.580;2022-07-29T10:48:26;4.18;;;3.22;;
11245;SDS011;59870;50.106;8.580;2022-07-29T10:50:54;3.70;;;2.42;;
11245;SDS011;59870;50.106;8.580;2022-07-29T10:53:24;6.47;;;2.92;;
11245;SDS011;59870;50.106;8.580;2022-07-29T10:55:59;4.50;;;3.10;;
11245;SDS011;59870;50.106;8.580;2022-07-29T10:58:32;5.80;;;2.70;;
11245;SDS011;59870;50.106;8.580;2022-07-29T11:01:01;4.28;;;2.70;;
11245;SDS011;59870;50.106;8.580;2022-07-29T11:04:04;7.32;;;3.13;;
11245;SDS011;59870;50.106;8.580;2022-07-29T11:09:32;4.13;;;2.47;;
11245;SDS011;59870;50.106;8.580;2022-07-29T11:12:45;2.35;;;2.20;;
11245;SDS011;59870;50.106;8.580;2022-07-29T11:15:05;5.22;;;2.90;;
11245;SDS011;59870;50.106;8.580;2022-07-29T11:18:02;6.60;;;3.20;;
11245;SDS011;59870;50.106;8.580;2022-07-29T11:20:45;2.85;;;2.65;;
11245;SDS011;59870;50.106;8.580;2022-07-29T11:28:48;3.70;;;2.95;;
11245;SDS011;59870;50.106;8.580;2022-07-29T11:34:15;4.25;;;2.70;;
11245;SDS011;59870;50.106;8.580;2022-07-29T11:47:56;3.38;;;2.80;;
11245;SDS011;59870;50.106;8.580;2022-07-29T11:50:45;8.52;;;2.75;;
11245;SDS011;59870;50.106;8.580;2022-07-29T11:53:14;3.00;;;2.45;;
11245;SDS011;59870;50.106;8.580;2022-07-29T11:55:42;3.22;;;2.95;;
11245;SDS011;59870;50.106;8.580;2022-07-29T11:58:23;3.25;;;2.88;;
11245;SDS011;59870;50.106;8.580;2022-07-29T12:00:52;2.70;;;2.50;;
11245;SDS011;59870;50.106;8.580;2022-07-29T12:03:25;2.83;;;2.63;;
11245;SDS011;59870;50.106;8.580;2022-07-29T12:06:11;3.22;;;2.92;;
11245;SDS011;59870;50.106;8.580;2022-07-29T12:08:44;2.47;;;2.22;;
11245;SDS011;59870;50.106;8.580;2022-07-29T12:11:17;2.92;;;2.63;;
11245;SDS011;59870;50.106;8.580;2022-07-29T12:13:47;2.63;;;2.30;;
11245;SDS011;59870;50.106;8.580;2022-07-29T12:16:15;3.13;;;2.83;;
11245;SDS011;59870;50.106;8.580;2022-07-29T12:18:56;3.13;;;2.88;;
11245;SDS011;59870;50.106;8.580;2022-07-29T12:21:28;2.58;;;2.40;;
11245;SDS011;59870;50.106;8.580;2022-07-29T12:24:22;4.28;;;2.88;;
11245;SDS011;59870;50.106;8.580;2022-07-29T12:26:53;2.83;;;2.40;;
11245;SDS011;59870;50.106;8.580;2022-07-29T12:29:23;2.80;;;2.60;;
11245;SDS011;59870;50.106;8.580;2022-07-29T12:32:02;3.05;;;2.72;;
11245;SDS011;59870;50.106;8.580;2022-07-29T12:34:31;3.30;;;3.03;;
11245;SDS011;59870;50.106;8.580;2022-07-29T12:36:59;5.28;;;3.00;;
11245;SDS011;59870;50.106;8.580;2022-07-29T12:39:27;3.15;;;2.95;;
11245;SDS011;59870;50.106;8.580;2022-07-29T12:41:55;3.30;;;3.00;;
11245;SDS011;59870;50.106;8.580;2022-07-29T12:44:44;3.92;;;2.65;;
11245;SDS011;59870;50.106;8.580;2022-07-29T12:47:13;4.82;;;3.08;;
11245;SDS011;59870;50.106;8.580;2022-07-29T12:49:40;3.45;;;2.80;;
11245;SDS011;59870;50.106;8.580;2022-07-29T12:54:54;4.57;;;2.90;;
11245;SDS011;59870;50.106;8.580;2022-07-29T12:57:21;2.95;;;2.72;;
11245;SDS011;59870;50.106;8.580;2022-07-29T13:00:08;5.63;;;3.20;;
11245;SDS011;59870;50.106;8.580;2022-07-29T13:02:38;3.28;;;2.90;;
11245;SDS011;59870;50.106;8.580;2022-07-29T13:05:06;3.33;;;2.75;;
11245;SDS011;59870;50.106;8.580;2022-07-29T13:07:38;3.38;;;2.65;;
11245;SDS011;59870;50.106;8.580;2022-07-29T13:10:23;4.20;;;3.70;;
11245;SDS011;59870;50.106;8.580;2022-07-29T13:13:01;6.20;;;3.22;;
11245;SDS011;59870;50.106;8.580;2022-07-29T13:15:30;3.25;;;2.58;;
11245;SDS011;59870;50.106;8.580;2022-07-29T13:17:58;3.00;;;2.72;;
11245;SDS011;59870;50.106;8.580;2022-07-29T13:20:27;2.90;;;2.70;;
11245;SDS011;59870;50.106;8.580;2022-07-29T13:23:00;4.22;;;2.75;;
11245;SDS011;59870;50.106;8.580;2022-07-29T13:25:31;4.68;;;3.42;;
11245;SDS011;59870;50.106;8.580;2022-07-29T13:27:59;5.95;;;3.17;;
11245;SDS011;59870;50.106;8.580;2022-07-29T13:30:26;9.45;;;3.30;;
11245;SDS011;59870;50.106;8.580;2022-07-29T13:32:53;4.78;;;3.40;;
11245;SDS011;59870;50.106;8.580;2022-07-29T13:35:21;2.88;;;2.67;;
11245;SDS011;59870;50.106;8.580;2022-07-29T13:37:49;3.13;;;2.88;;
11245;SDS011;59870;50.106;8.580;2022-07-29T13:40:17;3.65;;;3.35;;
11245;SDS011;59870;50.106;8.580;2022-07-29T13:42:45;3.35;;;2.85;;
11245;SDS011;59870;50.106;8.580;2022-07-29T13:45:44;3.42;;;2.60;;
11245;SDS011;59870;50.106;8.580;2022-07-29T13:48:12;8.20;;;3.40;;
11245;SDS011;59870;50.106;8.580;2022-07-29T13:50:39;3.05;;;2.75;;
11245;SDS011;59870;50.106;8.580;2022-07-29T13:53:07;3.25;;;2.97;;
11245;SDS011;59870;50.106;8.580;2022-07-29T13:55:34;9.95;;;3.83;;
11245;SDS011;59870;50.106;8.580;2022-07-29T13:58:01;5.13;;;2.92;;
11245;SDS011;59870;50.106;8.580;2022-07-29T14:00:30;2.65;;;2.45;;
11245;SDS011;59870;50.106;8.580;2022-07-29T14:02:58;3.38;;;3.13;;
11245;SDS011;59870;50.106;8.580;2022-07-29T14:05:25;2.85;;;2.65;;
11245;SDS011;59870;50.106;8.580;2022-07-29T14:07:52;5.18;;;3.00;;
11245;SDS011;59870;50.106;8.580;2022-07-29T14:10:20;2.85;;;2.65;;
11245;SDS011;59870;50.106;8.580;2022-07-29T14:12:47;5.22;;;2.88;;
11245;SDS011;59870;50.106;8.580;2022-07-29T14:15:15;2.75;;;2.55;;
11245;SDS011;59870;50.106;8.580;2022-07-29T14:17:42;3.22;;;2.97;;
11245;SDS011;59870;50.106;8.580;2022-07-29T14:20:09;2.70;;;2.47;;
11245;SDS011;59870;50.106;8.580;2022-07-29T14:22:37;3.53;;;2.75;;
11245;SDS011;59870;50.106;8.580;2022-07-29T14:25:08;8.48;;;3.15;;
11245;SDS011;59870;50.106;8.580;2022-07-29T14:27:42;11.30;;;2.50;;
11245;SDS011;59870;50.106;8.580;2022-07-29T14:30:10;2.75;;;2.55;;
11245;SDS011;59870;50.106;8.580;2022-07-29T14:32:37;5.10;;;2.90;;
11245;SDS011;59870;50.106;8.580;2022-07-29T14:35:05;7.00;;;2.63;;
11245;SDS011;59870;50.106;8.580;2022-07-29T14:37:34;6.63;;;2.95;;
11245;SDS011;59870;50.106;8.580;2022-07-29T14:40:06;2.63;;;2.42;;
11245;SDS011;59870;50.106;8.580;2022-07-29T14:42:35;2.90;;;2.70;;
11245;SDS011;59870;50.106;8.580;2022-07-29T14:45:04;3.20;;;2.47;;
11245;SDS011;59870;50.106;8.580;2022-07-29T14:47:33;3.90;;;3.10;;
11245;SDS011;59870;50.106;8.580;2022-07-29T14:50:01;3.00;;;2.80;;
11245;SDS011;59870;50.106;8.580;2022-07-29T14:52:29;3.13;;;2.90;;
11245;SDS011;59870;50.106;8.580;2022-07-29T14:55:05;3.42;;;2.85;;
11245;SDS011;59870;50.106;8.580;2022-07-29T14:57:46;6.65;;;2.83;;
11245;SDS011;59870;50.106;8.580;2022-07-29T15:00:13;3.05;;;2.33;;
11245;SDS011;59870;50.106;8.580;2022-07-29T15:02:41;7.13;;;2.47;;
11245;SDS011;59870;50.106;8.580;2022-07-29T15:05:30;2.40;;;2.30;;
11245;SDS011;59870;50.106;8.580;2022-07-29T15:07:58;2.73;;;2.47;;
11245;SDS011;59870;50.106;8.580;2022-07-29T15:10:26;4.25;;;2.10;;
11245;SDS011;59870;50.106;8.580;2022-07-29T15:12:55;2.33;;;2.13;;
11245;SDS011;59870;50.106;8.580;2022-07-29T15:15:22;9.38;;;2.20;;
11245;SDS011;59870;50.106;8.580;2022-07-29T15:17:50;4.07;;;2.28;;
11245;SDS011;59870;50.106;8.580;2022-07-29T15:20:18;4.47;;;2.22;;
11245;SDS011;59870;50.106;8.580;2022-07-29T15:22:46;3.40;;;2.83;;
11245;SDS011;59870;50.106;8.580;2022-07-29T15:25:13;2.10;;;1.90;;
11245;SDS011;59870;50.106;8.580;2022-07-29T15:27:41;4.03;;;2.40;;
11245;SDS011;59870;50.106;8.580;2022-07-29T15:30:14;1.83;;;1.65;;
11245;SDS011;59870;50.106;8.580;2022-07-29T15:33:01;2.60;;;1.60;;
11245;SDS011;59870;50.106;8.580;2022-07-29T15:35:29;2.38;;;2.00;;
11245;SDS011;59870;50.106;8.580;2022-07-29T15:37:57;1.83;;;1.73;;
11245;SDS011;59870;50.106;8.580;2022-07-29T15:40:25;1.88;;;1.70;;
11245;SDS011;59870;50.106;8.580;2022-07-29T15:42:52;1.60;;;1.50;;
11245;SDS011;59870;50.106;8.580;2022-07-29T15:45:20;1.60;;;1.50;;
11245;SDS011;59870;50.106;8.580;2022-07-29T15:47:47;2.10;;;1.63;;
11245;SDS011;59870;50.106;8.580;2022-07-29T15:50:15;1.27;;;1.27;;
11245;SDS011;59870;50.106;8.580;2022-07-29T15:52:42;1.58;;;1.50;;
11245;SDS011;59870;50.106;8.580;2022-07-29T15:55:10;1.50;;;1.40;;
11245;SDS011;59870;50.106;8.580;2022-07-29T15:57:37;1.17;;;1.10;;
11245;SDS011;59870;50.106;8.580;2022-07-29T16:00:06;2.20;;;1.42;;
11245;SDS011;59870;50.106;8.580;2022-07-29T16:02:34;1.58;;;1.48;;